sensor_id;sensor_type;location;lat;lon;timestamp;P1;durP1;ratioP1;P2;durP2;ratioP2
55312;SDS011;46892;45.668;11.756;2024-03-29T00:00:41;66.57;;;49.77;;
55312;SDS011;46892;45.668;11.756;2024-03-29T00:03:10;69.23;;;51.57;;
55312;SDS011;46892;45.668;11.756;2024-03-29T00:05:36;76.13;;;53.13;;
55312;SDS011;46892;45.668;11.756;2024-03-29T00:08:05;76.03;;;53.90;;
55312;SDS011;46892;45.668;11.756;2024-03-29T00:10:31;94.37;;;58.53;;
55312;SDS011;46892;45.668;11.756;2024-03-29T00:12:58;82.67;;;55.00;;
55312;SDS011;46892;45.668;11.756;2024-03-29T00:15:24;81.33;;;54.87;;
55312;SDS011;46892;45.668;11.756;2024-03-29T00:17:49;81.57;;;55.83;;
55312;SDS011;46892;45.668;11.756;2024-03-29T00:20:16;77.37;;;53.73;;
55312;SDS011;46892;45.668;11.756;2024-03-29T00:22:42;83.87;;;55.63;;
55312;SDS011;46892;45.668;11.756;2024-03-29T00:25:07;79.77;;;53.07;;
55312;SDS011;46892;45.668;11.756;2024-03-29T00:27:33;81.83;;;52.80;;
55312;SDS011;46892;45.668;11.756;2024-03-29T00:29:59;87.57;;;54.57;;
55312;SDS011;46892;45.668;11.756;2024-03-29T00:32:25;85.00;;;53.83;;
55312;SDS011;46892;45.668;11.756;2024-03-29T00:34:51;83.10;;;53.80;;
55312;SDS011;46892;45.668;11.756;2024-03-29T00:37:18;87.40;;;54.37;;
55312;SDS011;46892;45.668;11.756;2024-03-29T00:39:44;86.77;;;55.27;;
55312;SDS011;46892;45.668;11.756;2024-03-29T00:42:10;83.77;;;53.07;;
55312;SDS011;46892;45.668;11.756;2024-03-29T00:44:40;80.82;;;52.15;;
55312;SDS011;46892;45.668;11.756;2024-03-29T00:47:06;76.37;;;50.57;;
55312;SDS011;46892;45.668;11.756;2024-03-29T00:49:33;80.23;;;50.37;;
55312;SDS011;46892;45.668;11.756;2024-03-29T00:51:59;84.33;;;52.93;;
55312;SDS011;46892;45.668;11.756;2024-03-29T00:54:25;86.87;;;51.93;;
55312;SDS011;46892;45.668;11.756;2024-03-29T00:56:51;82.00;;;50.80;;
55312;SDS011;46892;45.668;11.756;2024-03-29T00:59:17;83.77;;;50.70;;
55312;SDS011;46892;45.668;11.756;2024-03-29T01:01:43;78.63;;;47.93;;
55312;SDS011;46892;45.668;11.756;2024-03-29T01:04:10;77.73;;;47.53;;
55312;SDS011;46892;45.668;11.756;2024-03-29T01:06:36;82.53;;;49.53;;
55312;SDS011;46892;45.668;11.756;2024-03-29T01:09:02;83.43;;;49.57;;
55312;SDS011;46892;45.668;11.756;2024-03-29T01:11:29;80.40;;;48.90;;
55312;SDS011;46892;45.668;11.756;2024-03-29T01:13:55;84.13;;;49.23;;
55312;SDS011;46892;45.668;11.756;2024-03-29T01:16:21;71.00;;;45.90;;
55312;SDS011;46892;45.668;11.756;2024-03-29T01:18:47;70.47;;;46.47;;
55312;SDS011;46892;45.668;11.756;2024-03-29T01:21:13;66.10;;;45.10;;
55312;SDS011;46892;45.668;11.756;2024-03-29T01:23:39;66.90;;;44.70;;
55312;SDS011;46892;45.668;11.756;2024-03-29T01:26:06;65.60;;;45.57;;
55312;SDS011;46892;45.668;11.756;2024-03-29T01:28:32;59.97;;;43.73;;
55312;SDS011;46892;45.668;11.756;2024-03-29T01:30:57;58.57;;;42.70;;
55312;SDS011;46892;45.668;11.756;2024-03-29T01:33:23;58.23;;;42.27;;
55312;SDS011;46892;45.668;11.756;2024-03-29T01:35:50;62.87;;;44.07;;
55312;SDS011;46892;45.668;11.756;2024-03-29T01:38:15;69.23;;;46.23;;
55312;SDS011;46892;45.668;11.756;2024-03-29T01:40:41;61.57;;;44.33;;
55312;SDS011;46892;45.668;11.756;2024-03-29T01:43:07;56.50;;;41.37;;
55312;SDS011;46892;45.668;11.756;2024-03-29T01:45:38;53.97;;;39.43;;
55312;SDS011;46892;45.668;11.756;2024-03-29T01:48:05;54.53;;;39.47;;
55312;SDS011;46892;45.668;11.756;2024-03-29T01:50:32;59.87;;;41.03;;
55312;SDS011;46892;45.668;11.756;2024-03-29T01:52:59;56.63;;;39.40;;
55312;SDS011;46892;45.668;11.756;2024-03-29T01:55:25;49.70;;;36.37;;
55312;SDS011;46892;45.668;11.756;2024-03-29T01:57:51;53.07;;;36.93;;
55312;SDS011;46892;45.668;11.756;2024-03-29T02:00:17;54.17;;;38.33;;
55312;SDS011;46892;45.668;11.756;2024-03-29T02:02:44;51.90;;;37.50;;
55312;SDS011;46892;45.668;11.756;2024-03-29T02:05:09;49.03;;;37.67;;
55312;SDS011;46892;45.668;11.756;2024-03-29T02:07:35;51.23;;;38.20;;
55312;SDS011;46892;45.668;11.756;2024-03-29T02:10:03;52.73;;;37.57;;
55312;SDS011;46892;45.668;11.756;2024-03-29T02:12:31;58.23;;;40.27;;
55312;SDS011;46892;45.668;11.756;2024-03-29T02:14:57;49.90;;;38.67;;
55312;SDS011;46892;45.668;11.756;2024-03-29T02:17:24;52.90;;;38.13;;
55312;SDS011;46892;45.668;11.756;2024-03-29T02:19:49;55.20;;;39.10;;
55312;SDS011;46892;45.668;11.756;2024-03-29T02:22:15;50.13;;;38.00;;
55312;SDS011;46892;45.668;11.756;2024-03-29T02:24:43;54.97;;;40.27;;
55312;SDS011;46892;45.668;11.756;2024-03-29T02:27:09;56.90;;;41.03;;
55312;SDS011;46892;45.668;11.756;2024-03-29T02:29:35;62.70;;;42.37;;
55312;SDS011;46892;45.668;11.756;2024-03-29T02:32:05;63.10;;;43.70;;
55312;SDS011;46892;45.668;11.756;2024-03-29T02:34:30;68.70;;;47.07;;
55312;SDS011;46892;45.668;11.756;2024-03-29T02:36:56;72.17;;;47.80;;
55312;SDS011;46892;45.668;11.756;2024-03-29T02:39:22;69.40;;;47.10;;
55312;SDS011;46892;45.668;11.756;2024-03-29T02:41:48;76.70;;;49.83;;
55312;SDS011;46892;45.668;11.756;2024-03-29T02:44:14;75.00;;;49.37;;
55312;SDS011;46892;45.668;11.756;2024-03-29T02:46:41;74.03;;;47.97;;
55312;SDS011;46892;45.668;11.756;2024-03-29T02:49:07;77.47;;;49.80;;
55312;SDS011;46892;45.668;11.756;2024-03-29T02:51:34;80.17;;;50.87;;
55312;SDS011;46892;45.668;11.756;2024-03-29T02:54:00;76.63;;;49.30;;
55312;SDS011;46892;45.668;11.756;2024-03-29T02:56:26;74.37;;;48.87;;
55312;SDS011;46892;45.668;11.756;2024-03-29T02:58:52;75.23;;;49.30;;
55312;SDS011;46892;45.668;11.756;2024-03-29T03:01:18;76.50;;;49.03;;
55312;SDS011;46892;45.668;11.756;2024-03-29T03:03:44;73.57;;;48.77;;
55312;SDS011;46892;45.668;11.756;2024-03-29T03:06:10;76.17;;;49.63;;
55312;SDS011;46892;45.668;11.756;2024-03-29T03:08:36;76.33;;;47.97;;
55312;SDS011;46892;45.668;11.756;2024-03-29T03:11:20;80.93;;;49.40;;
55312;SDS011;46892;45.668;11.756;2024-03-29T03:13:46;83.07;;;50.83;;
55312;SDS011;46892;45.668;11.756;2024-03-29T03:16:11;76.83;;;48.10;;
55312;SDS011;46892;45.668;11.756;2024-03-29T03:18:37;76.57;;;47.87;;
55312;SDS011;46892;45.668;11.756;2024-03-29T03:21:03;78.60;;;46.20;;
55312;SDS011;46892;45.668;11.756;2024-03-29T03:23:29;69.77;;;44.20;;
55312;SDS011;46892;45.668;11.756;2024-03-29T03:25:56;74.67;;;46.87;;
55312;SDS011;46892;45.668;11.756;2024-03-29T03:28:26;63.63;;;43.10;;
55312;SDS011;46892;45.668;11.756;2024-03-29T03:30:52;68.30;;;41.87;;
55312;SDS011;46892;45.668;11.756;2024-03-29T03:33:19;66.63;;;43.17;;
55312;SDS011;46892;45.668;11.756;2024-03-29T03:35:45;63.57;;;40.57;;
55312;SDS011;46892;45.668;11.756;2024-03-29T03:38:11;62.23;;;40.33;;
55312;SDS011;46892;45.668;11.756;2024-03-29T03:40:37;58.93;;;39.33;;
55312;SDS011;46892;45.668;11.756;2024-03-29T03:43:04;58.17;;;39.80;;
55312;SDS011;46892;45.668;11.756;2024-03-29T03:45:38;56.23;;;38.87;;
55312;SDS011;46892;45.668;11.756;2024-03-29T03:48:05;54.23;;;37.73;;
55312;SDS011;46892;45.668;11.756;2024-03-29T03:50:32;50.63;;;36.00;;
55312;SDS011;46892;45.668;11.756;2024-03-29T03:52:58;52.30;;;35.43;;
55312;SDS011;46892;45.668;11.756;2024-03-29T03:55:24;48.47;;;34.37;;
55312;SDS011;46892;45.668;11.756;2024-03-29T03:57:50;49.47;;;34.23;;
55312;SDS011;46892;45.668;11.756;2024-03-29T04:00:17;48.23;;;33.33;;
55312;SDS011;46892;45.668;11.756;2024-03-29T04:02:51;50.37;;;32.13;;
55312;SDS011;46892;45.668;11.756;2024-03-29T04:05:20;45.53;;;31.33;;
55312;SDS011;46892;45.668;11.756;2024-03-29T04:07:46;46.53;;;31.60;;
55312;SDS011;46892;45.668;11.756;2024-03-29T04:10:12;46.37;;;30.73;;
55312;SDS011;46892;45.668;11.756;2024-03-29T04:12:38;47.97;;;30.87;;
55312;SDS011;46892;45.668;11.756;2024-03-29T04:15:04;44.00;;;29.67;;
55312;SDS011;46892;45.668;11.756;2024-03-29T04:17:31;45.20;;;29.63;;
55312;SDS011;46892;45.668;11.756;2024-03-29T04:19:57;44.87;;;28.90;;
55312;SDS011;46892;45.668;11.756;2024-03-29T04:22:23;45.60;;;28.87;;
55312;SDS011;46892;45.668;11.756;2024-03-29T04:24:50;42.27;;;27.83;;
55312;SDS011;46892;45.668;11.756;2024-03-29T04:27:16;42.57;;;28.60;;
55312;SDS011;46892;45.668;11.756;2024-03-29T04:29:42;41.77;;;28.43;;
55312;SDS011;46892;45.668;11.756;2024-03-29T04:32:07;42.00;;;26.57;;
55312;SDS011;46892;45.668;11.756;2024-03-29T04:34:33;38.37;;;25.57;;
55312;SDS011;46892;45.668;11.756;2024-03-29T04:36:59;36.90;;;24.67;;
55312;SDS011;46892;45.668;11.756;2024-03-29T04:39:27;33.00;;;23.13;;
55312;SDS011;46892;45.668;11.756;2024-03-29T04:41:52;39.87;;;25.87;;
55312;SDS011;46892;45.668;11.756;2024-03-29T04:44:25;36.63;;;24.80;;
55312;SDS011;46892;45.668;11.756;2024-03-29T04:46:52;34.83;;;23.33;;
55312;SDS011;46892;45.668;11.756;2024-03-29T04:49:18;33.97;;;22.80;;
55312;SDS011;46892;45.668;11.756;2024-03-29T04:51:48;38.20;;;24.52;;
55312;SDS011;46892;45.668;11.756;2024-03-29T04:54:17;38.87;;;24.90;;
55312;SDS011;46892;45.668;11.756;2024-03-29T04:56:43;39.20;;;25.40;;
55312;SDS011;46892;45.668;11.756;2024-03-29T04:59:09;40.83;;;27.07;;
55312;SDS011;46892;45.668;11.756;2024-03-29T05:01:35;40.73;;;26.37;;
55312;SDS011;46892;45.668;11.756;2024-03-29T05:04:01;40.00;;;25.60;;
55312;SDS011;46892;45.668;11.756;2024-03-29T05:06:27;40.23;;;26.37;;
55312;SDS011;46892;45.668;11.756;2024-03-29T05:08:54;40.37;;;27.07;;
55312;SDS011;46892;45.668;11.756;2024-03-29T05:11:20;44.53;;;26.53;;
55312;SDS011;46892;45.668;11.756;2024-03-29T05:13:46;37.20;;;25.67;;
55312;SDS011;46892;45.668;11.756;2024-03-29T05:16:12;43.93;;;27.60;;
55312;SDS011;46892;45.668;11.756;2024-03-29T05:18:38;45.33;;;27.93;;
55312;SDS011;46892;45.668;11.756;2024-03-29T05:21:04;43.70;;;28.30;;
55312;SDS011;46892;45.668;11.756;2024-03-29T05:23:30;41.63;;;26.20;;
55312;SDS011;46892;45.668;11.756;2024-03-29T05:25:56;41.20;;;26.43;;
55312;SDS011;46892;45.668;11.756;2024-03-29T05:28:21;42.83;;;28.13;;
55312;SDS011;46892;45.668;11.756;2024-03-29T05:30:47;41.53;;;26.53;;
55312;SDS011;46892;45.668;11.756;2024-03-29T05:33:13;40.00;;;26.60;;
55312;SDS011;46892;45.668;11.756;2024-03-29T05:35:39;34.57;;;24.07;;
55312;SDS011;46892;45.668;11.756;2024-03-29T05:38:05;39.57;;;25.07;;
55312;SDS011;46892;45.668;11.756;2024-03-29T05:40:31;35.60;;;24.27;;
55312;SDS011;46892;45.668;11.756;2024-03-29T05:42:57;36.13;;;24.43;;
55312;SDS011;46892;45.668;11.756;2024-03-29T05:45:24;35.30;;;23.60;;
55312;SDS011;46892;45.668;11.756;2024-03-29T05:47:55;35.00;;;23.77;;
55312;SDS011;46892;45.668;11.756;2024-03-29T05:50:21;30.73;;;21.87;;
55312;SDS011;46892;45.668;11.756;2024-03-29T05:52:49;32.30;;;21.93;;
55312;SDS011;46892;45.668;11.756;2024-03-29T05:55:15;33.20;;;22.30;;
55312;SDS011;46892;45.668;11.756;2024-03-29T05:57:41;31.83;;;21.87;;
55312;SDS011;46892;45.668;11.756;2024-03-29T06:00:10;32.30;;;21.53;;
55312;SDS011;46892;45.668;11.756;2024-03-29T06:02:36;32.73;;;21.27;;
55312;SDS011;46892;45.668;11.756;2024-03-29T06:05:03;31.63;;;21.10;;
55312;SDS011;46892;45.668;11.756;2024-03-29T06:07:30;29.77;;;21.13;;
55312;SDS011;46892;45.668;11.756;2024-03-29T06:10:01;29.73;;;21.13;;
55312;SDS011;46892;45.668;11.756;2024-03-29T06:12:30;29.30;;;20.40;;
55312;SDS011;46892;45.668;11.756;2024-03-29T06:14:57;33.43;;;21.57;;
55312;SDS011;46892;45.668;11.756;2024-03-29T06:17:41;30.47;;;19.57;;
55312;SDS011;46892;45.668;11.756;2024-03-29T06:20:07;29.30;;;20.77;;
55312;SDS011;46892;45.668;11.756;2024-03-29T06:22:33;27.43;;;19.43;;
55312;SDS011;46892;45.668;11.756;2024-03-29T06:24:59;28.37;;;18.93;;
55312;SDS011;46892;45.668;11.756;2024-03-29T06:29:58;28.40;;;18.80;;
55312;SDS011;46892;45.668;11.756;2024-03-29T06:32:25;26.53;;;19.13;;
55312;SDS011;46892;45.668;11.756;2024-03-29T06:34:50;34.27;;;20.63;;
55312;SDS011;46892;45.668;11.756;2024-03-29T06:37:16;29.20;;;19.50;;
55312;SDS011;46892;45.668;11.756;2024-03-29T06:39:42;28.13;;;19.10;;
55312;SDS011;46892;45.668;11.756;2024-03-29T06:42:08;30.10;;;20.00;;
55312;SDS011;46892;45.668;11.756;2024-03-29T06:44:35;26.90;;;19.83;;
55312;SDS011;46892;45.668;11.756;2024-03-29T06:47:04;26.30;;;18.97;;
55312;SDS011;46892;45.668;11.756;2024-03-29T06:49:30;30.40;;;20.07;;
55312;SDS011;46892;45.668;11.756;2024-03-29T06:51:57;27.87;;;19.47;;
55312;SDS011;46892;45.668;11.756;2024-03-29T06:54:26;28.70;;;18.60;;
55312;SDS011;46892;45.668;11.756;2024-03-29T06:56:55;29.67;;;19.07;;
55312;SDS011;46892;45.668;11.756;2024-03-29T06:59:22;28.17;;;19.20;;
55312;SDS011;46892;45.668;11.756;2024-03-29T07:01:48;26.53;;;17.87;;
55312;SDS011;46892;45.668;11.756;2024-03-29T07:04:18;27.63;;;18.80;;
55312;SDS011;46892;45.668;11.756;2024-03-29T07:06:44;28.50;;;18.83;;
55312;SDS011;46892;45.668;11.756;2024-03-29T07:09:13;25.20;;;18.13;;
55312;SDS011;46892;45.668;11.756;2024-03-29T07:11:39;24.80;;;17.30;;
55312;SDS011;46892;45.668;11.756;2024-03-29T07:14:05;24.07;;;16.13;;
55312;SDS011;46892;45.668;11.756;2024-03-29T07:16:32;23.00;;;15.20;;
55312;SDS011;46892;45.668;11.756;2024-03-29T07:18:58;21.43;;;14.67;;
55312;SDS011;46892;45.668;11.756;2024-03-29T07:21:24;22.03;;;13.53;;
55312;SDS011;46892;45.668;11.756;2024-03-29T07:23:50;21.53;;;14.80;;
55312;SDS011;46892;45.668;11.756;2024-03-29T07:26:16;17.63;;;13.13;;
55312;SDS011;46892;45.668;11.756;2024-03-29T07:28:42;18.93;;;12.87;;
55312;SDS011;46892;45.668;11.756;2024-03-29T07:31:08;18.97;;;13.37;;
55312;SDS011;46892;45.668;11.756;2024-03-29T07:33:34;23.93;;;14.73;;
55312;SDS011;46892;45.668;11.756;2024-03-29T07:36:00;21.07;;;14.93;;
55312;SDS011;46892;45.668;11.756;2024-03-29T07:38:26;24.30;;;15.03;;
55312;SDS011;46892;45.668;11.756;2024-03-29T08:22:08;15.90;;;11.13;;
55312;SDS011;46892;45.668;11.756;2024-03-29T08:24:38;14.40;;;9.37;;
55312;SDS011;46892;45.668;11.756;2024-03-29T08:27:04;16.70;;;13.17;;
55312;SDS011;46892;45.668;11.756;2024-03-29T08:29:30;16.10;;;11.60;;
55312;SDS011;46892;45.668;11.756;2024-03-29T08:31:56;15.63;;;9.20;;
55312;SDS011;46892;45.668;11.756;2024-03-29T08:34:22;14.33;;;9.30;;
55312;SDS011;46892;45.668;11.756;2024-03-29T08:36:48;13.03;;;9.43;;
55312;SDS011;46892;45.668;11.756;2024-03-29T08:39:14;14.97;;;6.53;;
55312;SDS011;46892;45.668;11.756;2024-03-29T08:41:41;9.07;;;5.50;;
55312;SDS011;46892;45.668;11.756;2024-03-29T08:44:09;8.43;;;5.10;;
55312;SDS011;46892;45.668;11.756;2024-03-29T08:46:36;8.83;;;3.70;;
55312;SDS011;46892;45.668;11.756;2024-03-29T08:49:02;5.93;;;3.40;;
55312;SDS011;46892;45.668;11.756;2024-03-29T08:51:27;6.07;;;3.23;;
55312;SDS011;46892;45.668;11.756;2024-03-29T08:53:54;5.23;;;3.03;;
55312;SDS011;46892;45.668;11.756;2024-03-29T08:56:20;5.90;;;2.57;;
55312;SDS011;46892;45.668;11.756;2024-03-29T08:58:47;4.67;;;2.23;;
55312;SDS011;46892;45.668;11.756;2024-03-29T09:01:15;4.30;;;2.43;;
55312;SDS011;46892;45.668;11.756;2024-03-29T09:03:42;5.93;;;2.43;;
55312;SDS011;46892;45.668;11.756;2024-03-29T09:06:08;4.50;;;2.43;;
55312;SDS011;46892;45.668;11.756;2024-03-29T09:08:34;5.77;;;2.77;;
55312;SDS011;46892;45.668;11.756;2024-03-29T09:11:00;5.37;;;2.40;;
55312;SDS011;46892;45.668;11.756;2024-03-29T09:13:28;6.87;;;2.70;;
55312;SDS011;46892;45.668;11.756;2024-03-29T09:15:55;7.17;;;2.73;;
55312;SDS011;46892;45.668;11.756;2024-03-29T09:18:21;4.23;;;2.70;;
55312;SDS011;46892;45.668;11.756;2024-03-29T09:21:00;5.00;;;2.87;;
55312;SDS011;46892;45.668;11.756;2024-03-29T09:23:26;15.90;;;3.80;;
55312;SDS011;46892;45.668;11.756;2024-03-29T09:25:54;6.17;;;3.47;;
55312;SDS011;46892;45.668;11.756;2024-03-29T09:28:23;6.73;;;3.77;;
55312;SDS011;46892;45.668;11.756;2024-03-29T09:30:49;6.67;;;4.00;;
55312;SDS011;46892;45.668;11.756;2024-03-29T09:33:15;9.70;;;4.60;;
55312;SDS011;46892;45.668;11.756;2024-03-29T09:35:41;8.27;;;4.73;;
55312;SDS011;46892;45.668;11.756;2024-03-29T09:38:07;8.47;;;5.20;;
55312;SDS011;46892;45.668;11.756;2024-03-29T09:40:32;8.47;;;5.40;;
55312;SDS011;46892;45.668;11.756;2024-03-29T09:43:00;10.03;;;5.53;;
55312;SDS011;46892;45.668;11.756;2024-03-29T09:45:32;8.77;;;5.30;;
55312;SDS011;46892;45.668;11.756;2024-03-29T09:48:05;9.17;;;4.97;;
55312;SDS011;46892;45.668;11.756;2024-03-29T09:50:36;8.80;;;5.13;;
55312;SDS011;46892;45.668;11.756;2024-03-29T09:53:06;9.37;;;6.13;;
55312;SDS011;46892;45.668;11.756;2024-03-29T09:55:33;9.25;;;5.35;;
55312;SDS011;46892;45.668;11.756;2024-03-29T09:58:02;8.13;;;5.47;;
55312;SDS011;46892;45.668;11.756;2024-03-29T10:00:28;9.97;;;5.73;;
55312;SDS011;46892;45.668;11.756;2024-03-29T10:02:55;11.53;;;8.30;;
55312;SDS011;46892;45.668;11.756;2024-03-29T10:05:26;10.60;;;7.63;;
55312;SDS011;46892;45.668;11.756;2024-03-29T10:07:53;11.63;;;8.00;;
55312;SDS011;46892;45.668;11.756;2024-03-29T10:10:19;11.57;;;6.10;;
55312;SDS011;46892;45.668;11.756;2024-03-29T10:12:45;8.27;;;5.77;;
55312;SDS011;46892;45.668;11.756;2024-03-29T10:15:11;4.90;;;3.10;;
55312;SDS011;46892;45.668;11.756;2024-03-29T10:17:46;7.83;;;3.87;;
55312;SDS011;46892;45.668;11.756;2024-03-29T10:20:18;6.13;;;3.33;;
55312;SDS011;46892;45.668;11.756;2024-03-29T10:22:45;4.67;;;2.50;;
55312;SDS011;46892;45.668;11.756;2024-03-29T10:25:14;5.20;;;2.20;;
55312;SDS011;46892;45.668;11.756;2024-03-29T10:27:40;5.47;;;2.20;;
55312;SDS011;46892;45.668;11.756;2024-03-29T10:30:07;4.50;;;2.07;;
55312;SDS011;46892;45.668;11.756;2024-03-29T10:32:34;4.80;;;2.20;;
55312;SDS011;46892;45.668;11.756;2024-03-29T10:35:03;5.63;;;1.97;;
55312;SDS011;46892;45.668;11.756;2024-03-29T10:37:29;5.07;;;2.40;;
55312;SDS011;46892;45.668;11.756;2024-03-29T10:40:00;5.43;;;2.77;;
55312;SDS011;46892;45.668;11.756;2024-03-29T10:42:28;2.60;;;1.27;;
55312;SDS011;46892;45.668;11.756;2024-03-29T10:44:58;6.00;;;1.80;;
55312;SDS011;46892;45.668;11.756;2024-03-29T10:47:25;4.43;;;1.50;;
55312;SDS011;46892;45.668;11.756;2024-03-29T10:49:51;3.57;;;1.60;;
55312;SDS011;46892;45.668;11.756;2024-03-29T10:52:22;2.27;;;1.30;;
55312;SDS011;46892;45.668;11.756;2024-03-29T10:54:50;3.37;;;1.40;;
55312;SDS011;46892;45.668;11.756;2024-03-29T10:57:23;4.30;;;1.27;;
55312;SDS011;46892;45.668;11.756;2024-03-29T11:00:04;4.40;;;1.80;;
55312;SDS011;46892;45.668;11.756;2024-03-29T11:02:42;4.33;;;1.80;;
55312;SDS011;46892;45.668;11.756;2024-03-29T11:05:28;5.30;;;2.00;;
55312;SDS011;46892;45.668;11.756;2024-03-29T11:07:56;4.33;;;2.20;;
55312;SDS011;46892;45.668;11.756;2024-03-29T11:10:28;5.40;;;2.80;;
55312;SDS011;46892;45.668;11.756;2024-03-29T11:15:45;4.50;;;2.97;;
55312;SDS011;46892;45.668;11.756;2024-03-29T11:18:14;8.90;;;3.90;;
55312;SDS011;46892;45.668;11.756;2024-03-29T11:20:44;6.63;;;4.00;;
55312;SDS011;46892;45.668;11.756;2024-03-29T11:23:16;6.10;;;4.10;;
55312;SDS011;46892;45.668;11.756;2024-03-29T11:25:54;7.17;;;3.90;;
55312;SDS011;46892;45.668;11.756;2024-03-29T11:28:23;7.60;;;3.60;;
55312;SDS011;46892;45.668;11.756;2024-03-29T11:30:51;6.83;;;3.60;;
55312;SDS011;46892;45.668;11.756;2024-03-29T11:33:25;7.70;;;3.87;;
55312;SDS011;46892;45.668;11.756;2024-03-29T11:35:54;6.10;;;3.40;;
55312;SDS011;46892;45.668;11.756;2024-03-29T11:38:21;4.87;;;3.07;;
55312;SDS011;46892;45.668;11.756;2024-03-29T11:41:10;8.73;;;3.07;;
55312;SDS011;46892;45.668;11.756;2024-03-29T11:43:40;4.95;;;2.83;;
55312;SDS011;46892;45.668;11.756;2024-03-29T11:46:11;5.73;;;2.90;;
55312;SDS011;46892;45.668;11.756;2024-03-29T11:48:39;5.77;;;2.60;;
55312;SDS011;46892;45.668;11.756;2024-03-29T11:51:06;6.00;;;2.60;;
55312;SDS011;46892;45.668;11.756;2024-03-29T11:53:34;9.20;;;3.07;;
55312;SDS011;46892;45.668;11.756;2024-03-29T11:56:01;5.37;;;2.97;;
55312;SDS011;46892;45.668;11.756;2024-03-29T11:58:28;10.13;;;3.17;;
55312;SDS011;46892;45.668;11.756;2024-03-29T12:00:56;5.47;;;3.07;;
55312;SDS011;46892;45.668;11.756;2024-03-29T12:03:24;5.83;;;2.70;;
55312;SDS011;46892;45.668;11.756;2024-03-29T12:05:52;7.67;;;2.80;;
55312;SDS011;46892;45.668;11.756;2024-03-29T12:08:27;7.43;;;3.30;;
55312;SDS011;46892;45.668;11.756;2024-03-29T12:10:59;7.13;;;3.50;;
55312;SDS011;46892;45.668;11.756;2024-03-29T12:13:26;7.13;;;3.53;;
55312;SDS011;46892;45.668;11.756;2024-03-29T12:15:53;7.90;;;3.40;;
55312;SDS011;46892;45.668;11.756;2024-03-29T12:18:20;13.40;;;4.97;;
55312;SDS011;46892;45.668;11.756;2024-03-29T12:20:48;8.67;;;5.20;;
55312;SDS011;46892;45.668;11.756;2024-03-29T12:23:15;11.33;;;5.30;;
55312;SDS011;46892;45.668;11.756;2024-03-29T12:25:43;7.33;;;3.50;;
55312;SDS011;46892;45.668;11.756;2024-03-29T12:28:10;25.57;;;5.17;;
55312;SDS011;46892;45.668;11.756;2024-03-29T12:30:37;9.60;;;5.13;;
55312;SDS011;46892;45.668;11.756;2024-03-29T12:33:06;11.37;;;5.60;;
55312;SDS011;46892;45.668;11.756;2024-03-29T12:35:42;10.60;;;5.63;;
55312;SDS011;46892;45.668;11.756;2024-03-29T12:38:10;10.43;;;5.70;;
55312;SDS011;46892;45.668;11.756;2024-03-29T12:40:38;12.07;;;5.17;;
55312;SDS011;46892;45.668;11.756;2024-03-29T12:43:06;11.37;;;4.90;;
55312;SDS011;46892;45.668;11.756;2024-03-29T12:45:34;10.40;;;4.70;;
55312;SDS011;46892;45.668;11.756;2024-03-29T12:48:01;11.53;;;4.80;;
55312;SDS011;46892;45.668;11.756;2024-03-29T12:50:31;9.83;;;4.50;;
55312;SDS011;46892;45.668;11.756;2024-03-29T12:52:58;9.13;;;4.10;;
55312;SDS011;46892;45.668;11.756;2024-03-29T12:55:26;11.57;;;4.10;;
55312;SDS011;46892;45.668;11.756;2024-03-29T12:57:55;9.07;;;4.40;;
55312;SDS011;46892;45.668;11.756;2024-03-29T13:00:22;10.07;;;4.70;;
55312;SDS011;46892;45.668;11.756;2024-03-29T13:02:48;11.93;;;4.43;;
55312;SDS011;46892;45.668;11.756;2024-03-29T13:05:14;10.80;;;4.53;;
55312;SDS011;46892;45.668;11.756;2024-03-29T13:07:40;10.90;;;4.00;;
55312;SDS011;46892;45.668;11.756;2024-03-29T13:10:07;12.57;;;3.90;;
55312;SDS011;46892;45.668;11.756;2024-03-29T13:12:53;10.53;;;5.03;;
55312;SDS011;46892;45.668;11.756;2024-03-29T13:15:20;11.30;;;5.63;;
55312;SDS011;46892;45.668;11.756;2024-03-29T13:17:53;11.37;;;5.07;;
55312;SDS011;46892;45.668;11.756;2024-03-29T13:20:20;12.60;;;5.20;;
55312;SDS011;46892;45.668;11.756;2024-03-29T13:22:46;11.73;;;4.60;;
55312;SDS011;46892;45.668;11.756;2024-03-29T13:25:16;10.40;;;4.00;;
55312;SDS011;46892;45.668;11.756;2024-03-29T13:27:43;10.87;;;4.10;;
55312;SDS011;46892;45.668;11.756;2024-03-29T13:30:11;12.13;;;4.07;;
55312;SDS011;46892;45.668;11.756;2024-03-29T13:32:41;11.00;;;3.20;;
55312;SDS011;46892;45.668;11.756;2024-03-29T13:35:09;12.47;;;3.10;;
55312;SDS011;46892;45.668;11.756;2024-03-29T13:37:37;8.97;;;2.40;;
55312;SDS011;46892;45.668;11.756;2024-03-29T13:40:06;14.23;;;3.50;;
55312;SDS011;46892;45.668;11.756;2024-03-29T13:42:33;11.77;;;3.77;;
55312;SDS011;46892;45.668;11.756;2024-03-29T13:45:03;10.40;;;3.80;;
55312;SDS011;46892;45.668;11.756;2024-03-29T13:47:30;10.03;;;3.17;;
55312;SDS011;46892;45.668;11.756;2024-03-29T13:50:07;14.00;;;3.30;;
55312;SDS011;46892;45.668;11.756;2024-03-29T13:52:34;11.87;;;3.50;;
55312;SDS011;46892;45.668;11.756;2024-03-29T13:55:00;13.17;;;4.00;;
55312;SDS011;46892;45.668;11.756;2024-03-29T13:57:28;11.20;;;3.20;;
55312;SDS011;46892;45.668;11.756;2024-03-29T13:59:55;10.77;;;3.40;;
55312;SDS011;46892;45.668;11.756;2024-03-29T14:02:21;10.70;;;3.27;;
55312;SDS011;46892;45.668;11.756;2024-03-29T14:04:49;9.43;;;3.20;;
55312;SDS011;46892;45.668;11.756;2024-03-29T14:07:15;9.83;;;3.13;;
55312;SDS011;46892;45.668;11.756;2024-03-29T14:09:43;10.07;;;3.40;;
55312;SDS011;46892;45.668;11.756;2024-03-29T14:12:10;19.70;;;5.40;;
55312;SDS011;46892;45.668;11.756;2024-03-29T14:14:36;14.43;;;4.93;;
55312;SDS011;46892;45.668;11.756;2024-03-29T14:17:02;10.30;;;3.27;;
55312;SDS011;46892;45.668;11.756;2024-03-29T14:19:33;11.63;;;3.33;;
55312;SDS011;46892;45.668;11.756;2024-03-29T14:22:00;14.17;;;6.47;;
55312;SDS011;46892;45.668;11.756;2024-03-29T14:24:27;14.30;;;3.87;;
55312;SDS011;46892;45.668;11.756;2024-03-29T14:26:55;9.17;;;2.90;;
55312;SDS011;46892;45.668;11.756;2024-03-29T14:29:23;12.13;;;2.87;;
55312;SDS011;46892;45.668;11.756;2024-03-29T14:31:49;9.60;;;3.00;;
55312;SDS011;46892;45.668;11.756;2024-03-29T14:34:16;9.80;;;2.13;;
55312;SDS011;46892;45.668;11.756;2024-03-29T14:36:42;9.87;;;2.47;;
55312;SDS011;46892;45.668;11.756;2024-03-29T14:39:09;10.00;;;2.47;;
55312;SDS011;46892;45.668;11.756;2024-03-29T14:41:38;11.40;;;2.77;;
55312;SDS011;46892;45.668;11.756;2024-03-29T14:44:04;8.37;;;2.53;;
55312;SDS011;46892;45.668;11.756;2024-03-29T14:46:32;11.90;;;2.77;;
55312;SDS011;46892;45.668;11.756;2024-03-29T14:48:59;7.57;;;2.50;;
55312;SDS011;46892;45.668;11.756;2024-03-29T14:51:25;9.83;;;2.97;;
55312;SDS011;46892;45.668;11.756;2024-03-29T14:53:53;8.03;;;2.33;;
55312;SDS011;46892;45.668;11.756;2024-03-29T14:56:19;9.80;;;3.10;;
55312;SDS011;46892;45.668;11.756;2024-03-29T14:58:44;12.27;;;3.07;;
55312;SDS011;46892;45.668;11.756;2024-03-29T15:01:11;9.27;;;2.47;;
55312;SDS011;46892;45.668;11.756;2024-03-29T15:03:37;8.80;;;2.80;;
55312;SDS011;46892;45.668;11.756;2024-03-29T15:06:03;8.93;;;2.70;;